Terminal Aerodrome Forecast
Issued by NWS Sterling, VA

Current Version | Previous Version | Graphics & Text | Print | Product List | Glossary Off
Versions: 1 2 3 4 5 6 7 8 9 10 11 12 13 14 15 16 17 18 19 20

405
FTUS41 KLWX 260542
TAFIAD
TAF
KIAD 260542Z 2606/2712 00000KT P6SM FEW040 SCT200
     FM260900 VRB03KT 4SM BR FEW030 SCT040
     FM261300 03005KT 4SM BR BKN008 BKN040
     FM261500 03006KT P6SM BKN030 BKN040
     FM261600 03006KT P6SM SCT040 BKN080=

USA.gov is the U.S. government's official web portal to all federal, state and local government web resources and services.